B6186 KCLM-KBFI
Flight info
| Callsign | B6186 |
|---|---|
| Flight time | 0h 19m |
| Altitude | 5000 |
| Route | WATTR JAWBN LOFAL |
| Aircraft | A318/M-SDE3FGHIJ1J2J3J4J5M1P2RWXYZ/LB1D1 |
Departure
| Time | 2026-05-05 09:25 |
|---|---|
| Airport | William R Fairchild International Airport (KCLM) |
Arrival
| Time | 2026-05-05 09:45 |
|---|---|
| Airport | King County International Airport - Boeing Field (KBFI) |
| Time | Latitude | Longitude | Altitude | Speed | Heading |
|---|---|---|---|---|---|
| 2026-05-05 09:06 | 48.11690 | -123.49330 | 306 ft | 0 kts | 287° |
| 2026-05-05 09:18 | 48.11690 | -123.49331 | 306 ft | 0 kts | 287° |
| 2026-05-05 09:20 | 48.11690 | -123.49332 | 306 ft | 0 kts | 287° |
| 2026-05-05 09:21 | 48.11691 | -123.49335 | 306 ft | 1 kts | 287° |
| 2026-05-05 09:21 | 48.11707 | -123.49351 | 306 ft | 3 kts | 359° |
| 2026-05-05 09:22 | 48.11720 | -123.49327 | 306 ft | 3 kts | 88° |
| 2026-05-05 09:22 | 48.11711 | -123.49291 | 306 ft | 4 kts | 105° |
| 2026-05-05 09:22 | 48.11716 | -123.49253 | 306 ft | 6 kts | 38° |
| 2026-05-05 09:22 | 48.11754 | -123.49196 | 306 ft | 10 kts | 82° |
| 2026-05-05 09:23 | 48.11745 | -123.49085 | 306 ft | 11 kts | 104° |
| 2026-05-05 09:23 | 48.11724 | -123.48957 | 306 ft | 15 kts | 104° |
| 2026-05-05 09:23 | 48.11698 | -123.48803 | 306 ft | 11 kts | 106° |
| 2026-05-05 09:23 | 48.11665 | -123.48727 | 306 ft | 9 kts | 111° |
| 2026-05-05 09:24 | 48.11660 | -123.48657 | 306 ft | 6 kts | 68° |
| 2026-05-05 09:24 | 48.11685 | -123.48653 | 306 ft | 4 kts | 314° |
| 2026-05-05 09:24 | 48.11683 | -123.48701 | 306 ft | 5 kts | 258° |
| 2026-05-05 09:24 | 48.11688 | -123.48763 | 306 ft | 7 kts | 279° |
| 2026-05-05 09:25 | 48.11715 | -123.48917 | 306 ft | 40 kts | 284° |
| 2026-05-05 09:25 | 48.11887 | -123.49903 | 345 ft | 147 kts | 284° |
| 2026-05-05 09:25 | 48.12187 | -123.51418 | 1361 ft | 154 kts | 293° |
| 2026-05-05 09:25 | 48.12783 | -123.52779 | 2477 ft | 170 kts | 311° |
| 2026-05-05 09:26 | 48.13812 | -123.53986 | 3154 ft | 205 kts | 333° |
| 2026-05-05 09:26 | 48.15286 | -123.54556 | 3942 ft | 233 kts | 358° |
| 2026-05-05 09:26 | 48.16902 | -123.54038 | 4712 ft | 249 kts | 25° |
| 2026-05-05 09:26 | 48.18226 | -123.52328 | 4935 ft | 257 kts | 54° |
| 2026-05-05 09:27 | 48.18810 | -123.49789 | 4986 ft | 262 kts | 84° |
| 2026-05-05 09:27 | 48.18697 | -123.47084 | 5004 ft | 264 kts | 96° |
| 2026-05-05 09:27 | 48.18445 | -123.44344 | 5000 ft | 263 kts | 97° |
| 2026-05-05 09:27 | 48.18193 | -123.41651 | 5000 ft | 263 kts | 96° |
| 2026-05-05 09:28 | 48.17941 | -123.38911 | 5000 ft | 263 kts | 96° |
| 2026-05-05 09:28 | 48.17698 | -123.36211 | 4998 ft | 263 kts | 96° |
| 2026-05-05 09:28 | 48.17455 | -123.33472 | 5002 ft | 265 kts | 96° |
| 2026-05-05 09:28 | 48.17215 | -123.30756 | 5000 ft | 264 kts | 96° |
| 2026-05-05 09:29 | 48.16975 | -123.28036 | 5000 ft | 263 kts | 96° |
| 2026-05-05 09:29 | 48.16736 | -123.25329 | 5000 ft | 263 kts | 96° |
| 2026-05-05 09:29 | 48.16497 | -123.22613 | 5000 ft | 263 kts | 96° |
| 2026-05-05 09:29 | 48.16257 | -123.19897 | 5000 ft | 263 kts | 96° |
| 2026-05-05 09:30 | 48.16016 | -123.17172 | 5000 ft | 263 kts | 96° |
| 2026-05-05 09:30 | 48.15774 | -123.14446 | 5000 ft | 263 kts | 96° |
| 2026-05-05 09:30 | 48.15533 | -123.11742 | 5000 ft | 263 kts | 96° |
| 2026-05-05 09:30 | 48.15292 | -123.09037 | 5000 ft | 263 kts | 96° |
| 2026-05-05 09:31 | 48.15047 | -123.06300 | 5000 ft | 263 kts | 96° |
| 2026-05-05 09:31 | 48.14805 | -123.03595 | 5000 ft | 263 kts | 96° |
| 2026-05-05 09:31 | 48.14559 | -123.00861 | 5000 ft | 263 kts | 96° |
| 2026-05-05 09:31 | 48.14316 | -122.98162 | 5000 ft | 263 kts | 96° |
| 2026-05-05 09:32 | 48.14068 | -122.95423 | 5000 ft | 263 kts | 96° |
| 2026-05-05 09:32 | 48.13606 | -122.92785 | 4993 ft | 265 kts | 114° |
| 2026-05-05 09:32 | 48.12474 | -122.90671 | 4998 ft | 265 kts | 143° |
| 2026-05-05 09:32 | 48.10850 | -122.89330 | 5008 ft | 265 kts | 155° |
| 2026-05-05 09:33 | 48.09174 | -122.88210 | 5002 ft | 265 kts | 157° |
| 2026-05-05 09:33 | 48.07481 | -122.87110 | 5000 ft | 264 kts | 158° |
| 2026-05-05 09:33 | 48.05802 | -122.86024 | 5000 ft | 264 kts | 158° |
| 2026-05-05 09:33 | 48.04106 | -122.84928 | 5000 ft | 264 kts | 158° |
| 2026-05-05 09:34 | 48.02471 | -122.83685 | 5000 ft | 265 kts | 150° |
| 2026-05-05 09:34 | 48.00881 | -122.82267 | 5000 ft | 265 kts | 149° |
| 2026-05-05 09:34 | 47.99314 | -122.80844 | 5000 ft | 265 kts | 149° |
| 2026-05-05 09:34 | 47.97736 | -122.79411 | 5000 ft | 265 kts | 149° |
| 2026-05-05 09:35 | 47.96175 | -122.77994 | 5000 ft | 265 kts | 149° |
| 2026-05-05 09:35 | 47.93025 | -122.75144 | 5000 ft | 265 kts | 149° |
| 2026-05-05 09:35 | 47.91446 | -122.73718 | 5000 ft | 265 kts | 149° |
| 2026-05-05 09:36 | 47.89878 | -122.72302 | 5000 ft | 265 kts | 149° |
| 2026-05-05 09:36 | 47.88294 | -122.70874 | 5000 ft | 265 kts | 149° |
| 2026-05-05 09:36 | 47.86725 | -122.69459 | 5000 ft | 265 kts | 149° |
| 2026-05-05 09:36 | 47.85161 | -122.67990 | 4998 ft | 265 kts | 144° |
| 2026-05-05 09:37 | 47.83717 | -122.66314 | 5001 ft | 265 kts | 141° |
| 2026-05-05 09:37 | 47.82285 | -122.64569 | 4828 ft | 257 kts | 141° |
| 2026-05-05 09:37 | 47.80973 | -122.62967 | 4580 ft | 237 kts | 140° |
| 2026-05-05 09:37 | 47.79708 | -122.61423 | 4339 ft | 229 kts | 140° |
| 2026-05-05 09:38 | 47.78490 | -122.59934 | 4630 ft | 233 kts | 140° |
| 2026-05-05 09:38 | 47.77236 | -122.58402 | 4544 ft | 231 kts | 140° |
| 2026-05-05 09:38 | 47.76004 | -122.56900 | 4446 ft | 230 kts | 140° |
| 2026-05-05 09:38 | 47.74773 | -122.55402 | 4129 ft | 227 kts | 140° |
| 2026-05-05 09:39 | 47.73549 | -122.53914 | 3759 ft | 225 kts | 140° |
| 2026-05-05 09:39 | 47.72338 | -122.52439 | 3436 ft | 222 kts | 140° |
| 2026-05-05 09:39 | 47.71160 | -122.51006 | 3134 ft | 220 kts | 140° |
| 2026-05-05 09:39 | 47.69994 | -122.49590 | 2818 ft | 208 kts | 141° |
| 2026-05-05 09:40 | 47.68920 | -122.48287 | 2531 ft | 195 kts | 141° |
| 2026-05-05 09:40 | 47.67898 | -122.47040 | 2296 ft | 181 kts | 139° |
| 2026-05-05 09:40 | 47.67039 | -122.45850 | 2139 ft | 166 kts | 136° |
| 2026-05-05 09:40 | 47.66131 | -122.44539 | 1992 ft | 205 kts | 135° |
| 2026-05-05 09:41 | 47.65118 | -122.43065 | 1867 ft | 197 kts | 135° |
| 2026-05-05 09:41 | 47.64162 | -122.41666 | 1656 ft | 187 kts | 135° |
| 2026-05-05 09:41 | 47.63278 | -122.40370 | 1533 ft | 172 kts | 135° |
| 2026-05-05 09:41 | 47.62463 | -122.39173 | 1810 ft | 159 kts | 135° |
| 2026-05-05 09:42 | 47.61921 | -122.38382 | 2124 ft | 164 kts | 136° |
| 2026-05-05 09:42 | 47.60790 | -122.37020 | 1830 ft | 158 kts | 147° |
| 2026-05-05 09:42 | 47.59883 | -122.36194 | 1562 ft | 147 kts | 148° |
| 2026-05-05 09:42 | 47.59321 | -122.35694 | 1490 ft | 134 kts | 149° |
| 2026-05-05 09:43 | 47.58541 | -122.35010 | 1228 ft | 125 kts | 149° |
| 2026-05-05 09:43 | 47.57598 | -122.34159 | 972 ft | 117 kts | 149° |
| 2026-05-05 09:43 | 47.57120 | -122.33741 | 855 ft | 118 kts | 149° |
| 2026-05-05 09:43 | 47.56356 | -122.33092 | 744 ft | 125 kts | 150° |
| 2026-05-05 09:44 | 47.55635 | -122.32482 | 545 ft | 117 kts | 149° |
| 2026-05-05 09:44 | 47.54926 | -122.31876 | 311 ft | 117 kts | 150° |
| 2026-05-05 09:44 | 47.54218 | -122.31274 | 142 ft | 115 kts | 149° |
| 2026-05-05 09:44 | 47.53595 | -122.30754 | 35 ft | 85 kts | 151° |
| 2026-05-05 09:45 | 47.53225 | -122.30442 | 33 ft | 38 kts | 150° |
| 2026-05-05 09:45 | 47.53021 | -122.30267 | 33 ft | 33 kts | 150° |
| 2026-05-05 09:45 | 47.52822 | -122.30098 | 33 ft | 33 kts | 150° |
| 2026-05-05 09:45 | 47.52701 | -122.29980 | 33 ft | 13 kts | 112° |
| 2026-05-05 09:46 | 47.52738 | -122.29869 | 33 ft | 13 kts | 41° |
| 2026-05-05 09:46 | 47.52822 | -122.29832 | 33 ft | 13 kts | 14° |
| 2026-05-05 09:46 | 47.52912 | -122.29878 | 33 ft | 16 kts | 330° |
| 2026-05-05 09:46 | 47.53021 | -122.29972 | 33 ft | 20 kts | 330° |
| 2026-05-05 09:47 | 47.53147 | -122.30079 | 33 ft | 21 kts | 330° |
| 2026-05-05 09:47 | 47.53274 | -122.30184 | 33 ft | 21 kts | 330° |
| 2026-05-05 09:47 | 47.53406 | -122.30294 | 33 ft | 22 kts | 330° |
| 2026-05-05 09:47 | 47.53543 | -122.30407 | 33 ft | 23 kts | 330° |
| 2026-05-05 09:48 | 47.53645 | -122.30524 | 33 ft | 15 kts | 316° |
| 2026-05-05 09:48 | 47.53700 | -122.30564 | 33 ft | 9 kts | 17° |
| 2026-05-05 09:48 | 47.53729 | -122.30506 | 33 ft | 5 kts | 37° |
| 2026-05-05 09:48 | 47.53747 | -122.30508 | 33 ft | 0 kts | 324° |